Time;durP1;ratioP1;P1;durP2;ratioP2;P2;SDS_P1;SDS_P2;PMS_P1;PMS_P2;Temp;Humidity;BMP_temperature;BMP_pressure;BME280_temperature;BME280_humidity;BME280_pressure;Samples;Min_cycle;Max_cycle;Signal;HPM_P1;HPM_P2
2022/10/14 00:01:40;;;;;;;;;;;19.90;68.70;;;;;;5052876;28;19925;-64
2022/10/14 00:04:05;;;;;;;;;;;19.90;68.70;;;;;;5067596;28;19947;-64
2022/10/14 00:06:31;;;;;;;;;;;19.90;68.70;;;;;;5051109;28;19936;-64
2022/10/14 00:09:01;;;;;;;;;;;19.80;68.60;;;;;;5052501;28;20413;-64
2022/10/14 00:11:28;;;;;;;;;;;19.80;68.60;;;;;;5033788;28;19929;-65
2022/10/14 00:13:57;;;;;;;;;;;19.80;68.60;;;;;;5052610;28;19927;-64
2022/10/14 00:16:24;;;;;;;;;;;19.80;68.60;;;;;;5034117;28;20288;-64
2022/10/14 00:18:49;;;;;;;;;;;19.80;68.60;;;;;;5051939;28;19993;-64
2022/10/14 00:21:15;;;;;;;;;;;19.80;68.60;;;;;;5052028;28;20413;-64
2022/10/14 00:23:41;;;;;;;;;;;19.80;68.60;;;;;;5052363;28;20350;-64
2022/10/14 00:26:06;;;;;;;;;;;19.80;68.60;;;;;;5051363;28;19929;-64
2022/10/14 00:28:32;;;;;;;;;;;19.80;68.60;;;;;;5067668;28;20534;-65
2022/10/14 00:30:58;;;;;;;;;;;19.80;68.60;;;;;;5052155;28;20327;-64
2022/10/14 00:33:24;;;;;;;;;;;19.80;68.60;;;;;;5050828;28;20277;-64
2022/10/14 00:35:59;;;;;;;;;;;19.80;68.60;;;;;;5052158;28;19925;-64
2022/10/14 00:38:24;;;;;;;;;;;19.80;69.10;;;;;;5051970;28;20357;-64
2022/10/14 00:40:50;;;;;;;;;;;19.80;68.60;;;;;;5051219;28;19935;-64
2022/10/14 00:43:16;;;;;;;;;;;19.80;68.60;;;;;;5052216;28;19995;-64
2022/10/14 00:45:41;;;;;;;;;;;19.80;68.50;;;;;;5052476;28;19925;-64
2022/10/14 00:48:07;;;;;;;;;;;19.80;68.60;;;;;;5051092;28;20110;-64
2022/10/14 00:50:32;;;;;;;;;;;19.80;68.50;;;;;;5067774;28;20376;-64
2022/10/14 00:52:58;;;;;;;;;;;19.70;68.50;;;;;;5052140;28;19999;-64
2022/10/14 00:55:24;;;;;;;;;;;19.80;68.60;;;;;;5049698;28;19925;-64
2022/10/14 00:57:49;;;;;;;;;;;19.80;68.50;;;;;;5052097;28;19928;-64
2022/10/14 01:00:15;;;;;;;;;;;19.80;68.60;;;;;;5050794;28;19925;-64
2022/10/14 01:02:41;;;;;;;;;;;19.80;68.60;;;;;;5051449;28;19935;-64
2022/10/14 01:05:07;;;;;;;;;;;19.80;68.60;;;;;;5051981;28;20015;-64
2022/10/14 01:07:36;;;;;;;;;;;19.80;69.20;;;;;;5066697;28;20015;-64
2022/10/14 01:10:03;;;;;;;;;;;19.70;68.50;;;;;;5051982;28;19925;-64
2022/10/14 01:12:55;;;;;;;;;;;19.70;69.10;;;;;;5051837;28;19931;-64
2022/10/14 01:15:25;;;;;;;;;;;19.70;68.50;;;;;;5034949;28;19936;-64
2022/10/14 01:18:03;;;;;;;;;;;19.70;68.50;;;;;;5051598;28;20360;-64
2022/10/14 01:20:37;;;;;;;;;;;19.70;68.50;;;;;;5070877;28;20036;-64
2022/10/14 01:23:25;;;;;;;;;;;19.70;68.50;;;;;;5070270;28;19995;-64
2022/10/14 01:25:51;;;;;;;;;;;19.70;68.50;;;;;;5071296;28;19933;-64
2022/10/14 01:28:22;;;;;;;;;;;19.70;68.40;;;;;;5055383;28;19994;-64
2022/10/14 01:30:48;;;;;;;;;;;19.70;68.50;;;;;;5070372;28;19925;-64
2022/10/14 01:33:14;;;;;;;;;;;19.70;68.40;;;;;;5055105;28;19925;-64
2022/10/14 01:35:39;;;;;;;;;;;19.70;68.40;;;;;;5054349;28;20298;-64
2022/10/14 01:38:23;;;;;;;;;;;19.70;68.40;;;;;;5055415;28;19925;-64
2022/10/14 01:40:51;;;;;;;;;;;19.70;68.40;;;;;;5055431;28;19951;-64
2022/10/14 01:43:16;;;;;;;;;;;19.70;68.40;;;;;;5069669;28;19925;-64
2022/10/14 01:45:42;;;;;;;;;;;19.70;68.40;;;;;;5070527;28;19924;-64
2022/10/14 01:48:08;;;;;;;;;;;19.70;68.30;;;;;;5053297;28;19929;-64
2022/10/14 01:50:33;;;;;;;;;;;19.70;68.30;;;;;;5054470;28;19981;-64
2022/10/14 01:53:06;;;;;;;;;;;19.70;68.40;;;;;;5055231;28;20288;-64
2022/10/14 01:55:34;;;;;;;;;;;19.70;68.40;;;;;;5070350;28;20066;-64
2022/10/14 01:57:59;;;;;;;;;;;19.70;68.40;;;;;;5069510;28;19929;-64
2022/10/14 02:00:24;;;;;;;;;;;19.60;68.30;;;;;;5067609;28;19932;-64
2022/10/14 02:02:50;;;;;;;;;;;19.60;68.40;;;;;;5034418;28;20342;-64
2022/10/14 02:05:17;;;;;;;;;;;19.60;68.30;;;;;;5033473;28;19925;-64
2022/10/14 02:07:43;;;;;;;;;;;19.60;68.30;;;;;;5034667;28;19929;-64
2022/10/14 02:10:09;;;;;;;;;;;19.60;68.30;;;;;;5034400;28;19928;-64
2022/10/14 02:12:34;;;;;;;;;;;19.60;68.30;;;;;;5033705;28;20467;-64
2022/10/14 02:15:09;;;;;;;;;;;19.60;68.30;;;;;;5034603;28;20101;-64
2022/10/14 02:17:57;;;;;;;;;;;19.60;68.20;;;;;;5050251;28;20011;-64
2022/10/14 02:20:26;;;;;;;;;;;19.60;68.20;;;;;;5031132;28;20007;-64
2022/10/14 02:22:57;;;;;;;;;;;19.60;68.20;;;;;;5034687;28;19925;-64
2022/10/14 02:25:24;;;;;;;;;;;19.60;68.20;;;;;;5048861;28;19959;-65
2022/10/14 02:27:49;;;;;;;;;;;19.60;68.20;;;;;;5034619;28;19925;-65
2022/10/14 02:30:15;;;;;;;;;;;19.60;68.20;;;;;;5048708;28;20017;-64
2022/10/14 02:32:41;;;;;;;;;;;19.60;68.20;;;;;;5049138;28;19997;-64
2022/10/14 02:35:06;;;;;;;;;;;19.60;68.10;;;;;;5052925;28;20346;-64
2022/10/14 02:37:32;;;;;;;;;;;19.60;68.20;;;;;;5069392;28;19929;-65
2022/10/14 02:39:58;;;;;;;;;;;19.60;68.20;;;;;;5069147;28;19932;-64
2022/10/14 02:42:24;;;;;;;;;;;19.60;68.20;;;;;;5052404;28;19925;-65
2022/10/14 02:44:53;;;;;;;;;;;19.60;68.20;;;;;;5036183;28;19925;-64
2022/10/14 02:47:19;;;;;;;;;;;19.60;68.10;;;;;;5052887;28;20291;-64
2022/10/14 02:49:44;;;;;;;;;;;19.60;68.10;;;;;;5053749;28;19932;-65
2022/10/14 02:52:09;;;;;;;;;;;19.60;68.10;;;;;;5053783;28;19928;-65
2022/10/14 02:54:35;;;;;;;;;;;19.50;68.10;;;;;;5068828;28;20270;-65
2022/10/14 02:57:01;;;;;;;;;;;19.50;68.10;;;;;;5054064;28;19928;-64
2022/10/14 02:59:26;;;;;;;;;;;19.50;68.00;;;;;;5053673;28;19929;-64
2022/10/14 03:01:51;;;;;;;;;;;19.60;68.10;;;;;;5053116;28;19925;-64
2022/10/14 03:04:17;;;;;;;;;;;19.50;68.10;;;;;;5053108;28;20265;-65
2022/10/14 03:06:42;;;;;;;;;;;19.50;68.10;;;;;;5053750;28;19931;-65
2022/10/14 03:09:08;;;;;;;;;;;19.50;68.10;;;;;;5052442;28;20376;-65
2022/10/14 03:11:33;;;;;;;;;;;19.50;68.10;;;;;;5053468;28;20007;-65
2022/10/14 03:13:59;;;;;;;;;;;19.60;68.20;;;;;;5053567;28;19925;-64
2022/10/14 03:16:24;;;;;;;;;;;19.50;68.10;;;;;;5052407;28;20070;-65
2022/10/14 03:18:50;;;;;;;;;;;19.60;68.20;;;;;;5053362;28;20350;-66
2022/10/14 03:21:15;;;;;;;;;;;19.50;68.20;;;;;;5051823;28;19924;-64
2022/10/14 03:23:41;;;;;;;;;;;19.60;68.30;;;;;;5053586;28;19931;-67
2022/10/14 03:26:07;;;;;;;;;;;19.60;68.20;;;;;;5053106;28;19948;-64
2022/10/14 03:28:32;;;;;;;;;;;19.50;68.20;;;;;;5034709;28;19929;-64
2022/10/14 03:30:58;;;;;;;;;;;19.60;68.30;;;;;;5053262;28;19921;-64
2022/10/14 03:33:23;;;;;;;;;;;19.60;68.30;;;;;;5052584;28;19925;-66
2022/10/14 03:35:49;;;;;;;;;;;19.60;68.30;;;;;;5052027;28;19947;-64
2022/10/14 03:38:14;;;;;;;;;;;19.60;68.20;;;;;;5052911;28;20379;-65
2022/10/14 03:40:40;;;;;;;;;;;19.60;68.20;;;;;;5053383;28;19925;-65
2022/10/14 03:43:05;;;;;;;;;;;19.60;68.20;;;;;;5052224;28;19925;-66
2022/10/14 03:45:30;;;;;;;;;;;19.60;68.20;;;;;;5052972;28;19928;-64
2022/10/14 03:47:56;;;;;;;;;;;19.70;68.20;;;;;;5053108;28;19924;-64
2022/10/14 03:50:24;;;;;;;;;;;19.60;68.10;;;;;;5051694;28;19978;-64
2022/10/14 03:52:50;;;;;;;;;;;19.70;68.20;;;;;;5034828;28;19932;-64
2022/10/14 03:55:15;;;;;;;;;;;19.70;68.10;;;;;;5052515;28;19925;-64
2022/10/14 03:57:41;;;;;;;;;;;19.70;68.10;;;;;;5052217;28;20355;-64
2022/10/14 04:00:08;;;;;;;;;;;19.70;68.10;;;;;;5052343;28;19932;-64
2022/10/14 04:02:33;;;;;;;;;;;19.70;68.00;;;;;;5041014;28;19925;-64
2022/10/14 04:04:59;;;;;;;;;;;19.70;68.10;;;;;;5050590;28;20041;-64
2022/10/14 04:07:24;;;;;;;;;;;19.80;68.10;;;;;;5051705;28;19925;-64
2022/10/14 04:09:49;;;;;;;;;;;19.70;68.00;;;;;;5052624;28;19925;-64
2022/10/14 04:12:15;;;;;;;;;;;19.80;68.00;;;;;;5051207;28;19931;-64
2022/10/14 04:14:40;;;;;;;;;;;19.80;68.10;;;;;;5052786;28;20411;-64
2022/10/14 04:17:06;;;;;;;;;;;19.80;68.00;;;;;;5052226;28;19931;-64
2022/10/14 04:19:31;;;;;;;;;;;19.80;68.00;;;;;;5051852;28;20391;-64
2022/10/14 04:21:57;;;;;;;;;;;19.80;68.00;;;;;;5052582;28;19931;-64
2022/10/14 04:24:22;;;;;;;;;;;19.80;68.00;;;;;;5052132;28;20365;-64
2022/10/14 04:26:48;;;;;;;;;;;19.80;68.00;;;;;;5051773;28;19932;-64
2022/10/14 04:29:14;;;;;;;;;;;19.90;68.00;;;;;;5051904;28;20338;-64
2022/10/14 04:31:39;;;;;;;;;;;19.90;68.00;;;;;;5051544;28;19925;-64
2022/10/14 04:34:05;;;;;;;;;;;19.90;68.00;;;;;;5051629;28;19979;-64
2022/10/14 04:36:30;;;;;;;;;;;19.90;68.00;;;;;;5052290;28;20283;-64
2022/10/14 04:38:56;;;;;;;;;;;19.90;68.00;;;;;;5051316;28;19925;-64
2022/10/14 04:41:21;;;;;;;;;;;19.90;67.90;;;;;;5052001;28;20399;-64
2022/10/14 04:43:47;;;;;;;;;;;19.90;68.00;;;;;;5052215;28;19924;-64
2022/10/14 04:46:12;;;;;;;;;;;19.90;67.90;;;;;;5051056;28;19971;-64
2022/10/14 04:48:38;;;;;;;;;;;20.00;67.90;;;;;;5034133;28;19925;-64
2022/10/14 04:51:03;;;;;;;;;;;19.90;67.90;;;;;;5052362;28;19925;-64
2022/10/14 04:53:29;;;;;;;;;;;19.90;67.90;;;;;;5052454;28;20410;-64
2022/10/14 04:55:54;;;;;;;;;;;20.00;67.90;;;;;;5056114;28;20020;-64
2022/10/14 04:58:20;;;;;;;;;;;20.00;67.90;;;;;;5055548;28;20034;-64
2022/10/14 05:00:45;;;;;;;;;;;20.00;67.90;;;;;;5055496;28;19925;-64
2022/10/14 05:03:11;;;;;;;;;;;20.00;67.90;;;;;;5037809;28;19929;-64
2022/10/14 05:05:36;;;;;;;;;;;20.00;67.90;;;;;;5055770;28;19932;-64
2022/10/14 05:08:02;;;;;;;;;;;20.00;67.80;;;;;;5055442;28;19925;-64
2022/10/14 05:10:27;;;;;;;;;;;20.00;67.80;;;;;;5055438;28;19932;-64
2022/10/14 05:12:53;;;;;;;;;;;20.00;67.80;;;;;;5055877;28;20020;-64
2022/10/14 05:15:18;;;;;;;;;;;20.00;67.70;;;;;;5054728;28;19925;-64
2022/10/14 05:17:44;;;;;;;;;;;20.00;67.70;;;;;;5055784;28;19936;-64
2022/10/14 05:20:10;;;;;;;;;;;20.00;67.70;;;;;;5055342;28;20436;-64
2022/10/14 05:22:36;;;;;;;;;;;20.00;67.70;;;;;;5054975;28;19928;-64
2022/10/14 05:25:02;;;;;;;;;;;20.00;67.70;;;;;;5055768;28;20273;-64
2022/10/14 05:27:27;;;;;;;;;;;20.10;67.80;;;;;;5055013;28;20007;-64
2022/10/14 05:29:52;;;;;;;;;;;20.10;67.80;;;;;;5054873;28;19925;-64
2022/10/14 05:32:18;;;;;;;;;;;20.10;67.80;;;;;;5054989;28;20333;-64
2022/10/14 05:34:44;;;;;;;;;;;20.00;67.70;;;;;;5054626;28;19924;-64
2022/10/14 05:37:09;;;;;;;;;;;20.00;67.70;;;;;;5054545;28;19975;-64
2022/10/14 05:39:34;;;;;;;;;;;20.00;67.70;;;;;;5055378;28;19980;-64
2022/10/14 05:42:00;;;;;;;;;;;20.00;67.60;;;;;;5054791;28;19931;-64
2022/10/14 05:44:25;;;;;;;;;;;20.00;67.70;;;;;;5037006;28;20478;-64
2022/10/14 05:46:51;;;;;;;;;;;20.00;67.60;;;;;;5055482;28;19935;-65
2022/10/14 05:49:16;;;;;;;;;;;20.00;67.70;;;;;;5053622;28;19990;-64
2022/10/14 05:51:42;;;;;;;;;;;20.00;67.70;;;;;;5055107;28;19932;-64
2022/10/14 05:54:07;;;;;;;;;;;20.00;67.70;;;;;;5054419;28;20369;-64
2022/10/14 05:56:33;;;;;;;;;;;20.00;67.70;;;;;;5054235;28;19928;-64
2022/10/14 05:58:58;;;;;;;;;;;20.00;67.70;;;;;;5037231;28;19925;-65
2022/10/14 06:01:24;;;;;;;;;;;20.00;67.70;;;;;;5036623;28;19925;-65
2022/10/14 06:03:50;;;;;;;;;;;20.00;67.70;;;;;;5054040;28;19925;-61
2022/10/14 06:06:15;;;;;;;;;;;20.00;67.70;;;;;;5054528;28;20450;-64
2022/10/14 06:08:41;;;;;;;;;;;20.00;67.70;;;;;;5055040;28;19935;-64
2022/10/14 06:11:07;;;;;;;;;;;20.00;67.70;;;;;;5053588;28;19928;-64
2022/10/14 06:13:33;;;;;;;;;;;20.00;67.70;;;;;;5054810;28;19936;-63
2022/10/14 06:16:02;;;;;;;;;;;20.00;67.80;;;;;;5054721;28;19964;-63
2022/10/14 06:18:28;;;;;;;;;;;20.00;67.80;;;;;;5053038;28;20447;-64
2022/10/14 06:20:54;;;;;;;;;;;20.00;67.80;;;;;;5054616;28;20004;-64
2022/10/14 06:23:19;;;;;;;;;;;20.00;68.10;;;;;;5054070;28;19921;-64
2022/10/14 06:25:45;;;;;;;;;;;20.00;68.00;;;;;;5053872;28;19925;-64
2022/10/14 06:28:10;;;;;;;;;;;20.00;68.10;;;;;;5054307;28;20019;-64
2022/10/14 06:30:36;;;;;;;;;;;20.00;68.10;;;;;;5054114;28;19924;-64
2022/10/14 06:33:01;;;;;;;;;;;20.10;68.20;;;;;;5053400;28;20008;-64
2022/10/14 06:35:27;;;;;;;;;;;20.10;68.20;;;;;;5053929;28;19925;-64
2022/10/14 06:37:52;;;;;;;;;;;20.10;68.20;;;;;;5053772;28;19925;-66
2022/10/14 06:40:18;;;;;;;;;;;20.00;68.10;;;;;;5052603;28;19931;-61
2022/10/14 06:42:44;;;;;;;;;;;20.10;68.20;;;;;;5052715;28;21165;-63
2022/10/14 06:45:09;;;;;;;;;;;20.10;68.10;;;;;;5052155;28;19925;-64
2022/10/14 06:47:35;;;;;;;;;;;20.10;68.20;;;;;;5053720;28;19925;-64
2022/10/14 06:50:00;;;;;;;;;;;20.10;68.30;;;;;;5053141;28;20292;-64
2022/10/14 06:52:26;;;;;;;;;;;20.10;68.30;;;;;;5051966;28;20039;-63
2022/10/14 06:54:51;;;;;;;;;;;20.10;68.40;;;;;;5053776;28;20365;-63
2022/10/14 06:57:17;;;;;;;;;;;20.10;68.40;;;;;;5053668;28;19970;-63
2022/10/14 06:59:42;;;;;;;;;;;20.10;68.30;;;;;;5053187;28;19925;-64
2022/10/14 07:02:08;;;;;;;;;;;20.10;68.40;;;;;;5053416;28;20404;-65
2022/10/14 07:04:33;;;;;;;;;;;20.10;68.40;;;;;;5068555;28;19976;-64
2022/10/14 07:06:59;;;;;;;;;;;20.10;68.40;;;;;;5053116;28;19943;-64
2022/10/14 07:09:24;;;;;;;;;;;20.10;68.50;;;;;;5035797;28;20284;-65
2022/10/14 07:11:50;;;;;;;;;;;20.10;68.40;;;;;;5053745;28;19924;-65
2022/10/14 07:14:15;;;;;;;;;;;20.10;68.50;;;;;;5052553;28;19925;-64
2022/10/14 07:16:44;;;;;;;;;;;20.10;68.50;;;;;;5052960;28;20381;-64
2022/10/14 07:19:09;;;;;;;;;;;20.20;68.60;;;;;;5052807;28;20384;-64
2022/10/14 07:21:35;;;;;;;;;;;20.20;68.60;;;;;;5052831;28;19975;-65
2022/10/14 07:24:00;;;;;;;;;;;20.20;68.60;;;;;;5053588;28;20012;-65
2022/10/14 07:26:26;;;;;;;;;;;20.20;68.60;;;;;;5053208;28;20773;-64
2022/10/14 07:28:51;;;;;;;;;;;20.20;68.60;;;;;;5052346;28;20016;-67
2022/10/14 07:31:17;;;;;;;;;;;20.20;68.60;;;;;;5052642;28;19978;-67
2022/10/14 07:33:43;;;;;;;;;;;20.20;68.70;;;;;;5053245;28;19932;-66
2022/10/14 07:36:10;;;;;;;;;;;20.20;68.60;;;;;;5051876;28;20139;-66
2022/10/14 07:38:35;;;;;;;;;;;20.20;68.60;;;;;;5034909;28;19928;-66
2022/10/14 07:41:02;;;;;;;;;;;20.20;68.60;;;;;;5035476;28;20066;-66
2022/10/14 07:43:28;;;;;;;;;;;20.20;68.60;;;;;;5051796;28;19925;-66
2022/10/14 07:45:59;;;;;;;;;;;20.20;68.60;;;;;;5052717;28;20380;-65
2022/10/14 07:48:28;;;;;;;;;;;20.20;68.60;;;;;;5051880;28;19979;-66
2022/10/14 07:50:53;;;;;;;;;;;20.20;68.70;;;;;;5052978;28;19924;-66
2022/10/14 07:53:19;;;;;;;;;;;20.20;68.60;;;;;;5051076;28;19933;-66
2022/10/14 07:55:51;;;;;;;;;;;20.20;68.70;;;;;;5051519;28;20034;-66
2022/10/14 07:58:20;;;;;;;;;;;20.20;68.70;;;;;;5052217;28;20380;-65
2022/10/14 08:00:46;;;;;;;;;;;20.20;68.70;;;;;;5052642;28;20288;-66
2022/10/14 08:03:11;;;;;;;;;;;20.20;68.70;;;;;;5051619;28;19929;-65
2022/10/14 08:05:36;;;;;;;;;;;20.20;68.70;;;;;;5052547;28;19925;-65
2022/10/14 08:08:02;;;;;;;;;;;20.20;68.80;;;;;;5052915;28;20016;-66
2022/10/14 08:10:27;;;;;;;;;;;20.20;68.70;;;;;;5051781;28;19966;-66
2022/10/14 08:12:53;;;;;;;;;;;20.20;68.80;;;;;;5052549;28;19925;-66
2022/10/14 08:15:18;;;;;;;;;;;20.20;68.80;;;;;;5052571;28;19924;-66
2022/10/14 08:17:44;;;;;;;;;;;20.20;68.90;;;;;;5052061;28;19925;-66
2022/10/14 08:20:09;;;;;;;;;;;20.20;68.90;;;;;;5052167;28;19935;-66
2022/10/14 08:22:35;;;;;;;;;;;20.20;68.90;;;;;;5052610;28;20005;-66
2022/10/14 08:25:01;;;;;;;;;;;20.20;69.00;;;;;;5051947;28;19963;-67
2022/10/14 08:27:26;;;;;;;;;;;20.20;69.00;;;;;;5052088;28;19929;-66
2022/10/14 08:29:52;;;;;;;;;;;20.20;69.00;;;;;;5056169;28;19940;-66
2022/10/14 08:32:18;;;;;;;;;;;20.20;68.90;;;;;;5055618;28;19948;-69
2022/10/14 08:34:44;;;;;;;;;;;20.30;69.10;;;;;;5056499;28;20288;-63
2022/10/14 08:37:10;;;;;;;;;;;20.20;69.00;;;;;;5056293;28;19932;-64
2022/10/14 08:39:36;;;;;;;;;;;20.20;68.90;;;;;;5055563;28;20050;-64
2022/10/14 08:42:04;;;;;;;;;;;20.30;69.10;;;;;;5056478;28;19983;-65
2022/10/14 08:44:29;;;;;;;;;;;20.30;69.10;;;;;;5071563;28;19925;-65
2022/10/14 08:46:56;;;;;;;;;;;20.30;69.20;;;;;;5050476;28;19932;-62
2022/10/14 08:49:26;;;;;;;;;;;20.30;69.30;;;;;;5059619;28;20391;-63
2022/10/14 08:51:59;;;;;;;;;;;20.30;69.10;;;;;;5035321;28;19936;-64
2022/10/14 08:54:38;;;;;;;;;;;20.30;68.90;;;;;;5062509;28;19925;-64
2022/10/14 08:57:04;;;;;;;;;;;20.30;68.80;;;;;;5057468;28;19925;-64
2022/10/14 08:59:29;;;;;;;;;;;20.40;68.80;;;;;;5069834;28;19932;-64
2022/10/14 09:01:59;;;;;;;;;;;20.40;68.80;;;;;;5071385;28;19924;-64
2022/10/14 09:04:25;;;;;;;;;;;20.40;68.80;;;;;;5055590;28;19924;-64
2022/10/14 09:06:50;;;;;;;;;;;20.30;68.80;;;;;;5055040;28;20434;-64
2022/10/14 09:09:34;;;;;;;;;;;20.40;68.90;;;;;;5055451;28;19925;-64
2022/10/14 09:12:01;;;;;;;;;;;20.40;68.90;;;;;;5055967;28;19925;-64
2022/10/14 09:14:29;;;;;;;;;;;20.40;68.80;;;;;;5070479;28;19932;-64
2022/10/14 09:17:00;;;;;;;;;;;20.40;68.80;;;;;;5055795;28;20295;-65
2022/10/14 09:19:33;;;;;;;;;;;20.40;68.80;;;;;;5055061;28;19983;-64
2022/10/14 09:22:00;;;;;;;;;;;20.50;68.80;;;;;;5054809;28;20391;-64
2022/10/14 09:24:34;;;;;;;;;;;20.40;68.70;;;;;;5056365;28;19976;-63
2022/10/14 09:27:03;;;;;;;;;;;20.40;68.70;;;;;;5054484;28;19932;-63
2022/10/14 09:29:34;;;;;;;;;;;20.50;68.70;;;;;;5052978;28;19932;-65
2022/10/14 09:32:04;;;;;;;;;;;20.50;68.90;;;;;;5070750;28;19947;-65
2022/10/14 09:34:30;;;;;;;;;;;20.50;69.10;;;;;;5053919;28;19924;-66
2022/10/14 09:36:56;;;;;;;;;;;20.50;69.10;;;;;;5056177;28;19925;-64
2022/10/14 09:39:21;;;;;;;;;;;20.50;69.10;;;;;;5072911;28;19943;-62
2022/10/14 09:41:48;;;;;;;;;;;20.50;69.00;;;;;;5070222;28;19928;-63
2022/10/14 09:44:18;;;;;;;;;;;20.50;69.00;;;;;;5055347;28;19928;-63
2022/10/14 09:46:47;;;;;;;;;;;20.60;69.10;;;;;;5054968;28;19943;-59
2022/10/14 09:49:17;;;;;;;;;;;20.60;69.80;;;;;;5069720;28;19925;-62
2022/10/14 09:51:42;;;;;;;;;;;20.60;69.20;;;;;;5070726;28;20430;-62
2022/10/14 09:54:08;;;;;;;;;;;20.60;69.20;;;;;;5054979;28;19924;-64
2022/10/14 09:56:35;;;;;;;;;;;20.60;69.10;;;;;;5069366;28;19928;-63
2022/10/14 09:59:01;;;;;;;;;;;20.60;69.10;;;;;;5054834;28;19924;-63
2022/10/14 10:01:27;;;;;;;;;;;20.70;69.30;;;;;;5054447;28;20266;-64
2022/10/14 10:03:53;;;;;;;;;;;20.60;69.20;;;;;;5035731;28;19925;-65
2022/10/14 10:06:20;;;;;;;;;;;20.60;69.40;;;;;;5054293;28;19931;-66
2022/10/14 10:08:52;;;;;;;;;;;20.70;69.40;;;;;;5037394;28;20379;-68
2022/10/14 10:11:27;;;;;;;;;;;20.70;69.70;;;;;;5053692;28;20388;-68
2022/10/14 10:13:52;;;;;;;;;;;20.70;69.60;;;;;;5054392;28;19951;-65
2022/10/14 10:16:22;;;;;;;;;;;20.70;69.60;;;;;;5052344;28;20023;-67
2022/10/14 10:18:48;;;;;;;;;;;20.70;69.70;;;;;;5053937;28;20018;-69
2022/10/14 10:21:15;;;;;;;;;;;20.80;69.70;;;;;;5054040;28;19964;-68
2022/10/14 10:23:49;;;;;;;;;;;20.80;69.80;;;;;;5053322;28;19976;-69
2022/10/14 10:26:15;;;;;;;;;;;20.80;69.80;;;;;;5053966;28;19924;-69
2022/10/14 10:28:44;;;;;;;;;;;20.80;69.70;;;;;;5054009;28;20450;-68
2022/10/14 10:31:27;;;;;;;;;;;20.80;69.70;;;;;;5053318;28;19925;-67
2022/10/14 10:34:01;;;;;;;;;;;20.80;69.70;;;;;;5052265;28;19929;-67
2022/10/14 10:36:29;;;;;;;;;;;20.80;70.40;;;;;;5051545;28;19929;-67
2022/10/14 10:39:01;;;;;;;;;;;20.80;69.70;;;;;;5047427;28;19967;-66
2022/10/14 10:41:46;;;;;;;;;;;20.90;69.80;;;;;;5069465;28;19929;-68
2022/10/14 10:44:30;;;;;;;;;;;20.80;69.70;;;;;;5033468;28;20000;-67
2022/10/14 10:46:56;;;;;;;;;;;20.80;69.70;;;;;;5043989;28;19924;-67
2022/10/14 10:49:30;;;;;;;;;;;20.80;69.50;;;;;;5043506;28;20165;-67
2022/10/14 10:52:14;;;;;;;;;;;20.80;69.50;;;;;;5052119;28;19921;-67
2022/10/14 10:54:40;;;;;;;;;;;20.80;69.50;;;;;;5053610;28;19925;-67
2022/10/14 10:57:08;;;;;;;;;;;20.80;69.60;;;;;;5053826;28;19932;-67
2022/10/14 10:59:34;;;;;;;;;;;20.80;69.60;;;;;;5035253;28;20287;-67
2022/10/14 11:02:18;;;;;;;;;;;20.80;69.50;;;;;;5053980;28;19924;-67
2022/10/14 11:04:48;;;;;;;;;;;20.90;69.60;;;;;;5053926;28;19925;-68
2022/10/14 11:13:15;;;;;;;;;;;20.80;69.50;;;;;;5041604;28;19925;-66
2022/10/14 11:15:59;;;;;;;;;;;20.80;69.60;;;;;;5043351;28;19925;-65
2022/10/14 11:18:37;;;;;;;;;;;20.80;69.60;;;;;;5043754;28;20334;-65
2022/10/14 11:21:03;;;;;;;;;;;20.80;69.60;;;;;;5040478;28;20300;-65
2022/10/14 11:23:36;;;;;;;;;;;20.80;69.50;;;;;;5052318;28;20383;-66
2022/10/14 11:26:05;;;;;;;;;;;20.80;69.60;;;;;;5053404;28;19939;-64
2022/10/14 11:28:50;;;;;;;;;;;20.90;69.30;;;;;;5034468;28;19932;-66
2022/10/14 11:31:25;;;;;;;;;;;21.00;69.40;;;;;;5052393;28;19924;-63
2022/10/14 11:33:51;;;;;;;;;;;21.10;69.30;;;;;;5052641;28;20280;-65
2022/10/14 11:36:22;;;;;;;;;;;21.10;69.10;;;;;;5052326;28;20051;-63
2022/10/14 11:39:07;;;;;;;;;;;21.10;68.90;;;;;;5067262;28;20387;-63
2022/10/14 11:41:42;;;;;;;;;;;21.10;68.40;;;;;;5050620;28;20306;-63
2022/10/14 11:44:28;;;;;;;;;;;21.10;68.60;;;;;;5052296;28;19924;-63
2022/10/14 11:46:55;;;;;;;;;;;21.10;68.70;;;;;;5039163;28;19931;-63
2022/10/14 11:49:25;;;;;;;;;;;21.10;68.80;;;;;;5063785;28;20360;-63
2022/10/14 11:52:06;;;;;;;;;;;21.10;68.80;;;;;;5067648;28;20304;-63
2022/10/14 11:54:45;;;;;;;;;;;21.10;68.90;;;;;;5051126;28;19925;-65
2022/10/14 11:57:13;;;;;;;;;;;21.00;68.90;;;;;;5064852;28;19928;-63
2022/10/14 11:59:49;;;;;;;;;;;21.00;69.00;;;;;;5067614;28;19999;-63
2022/10/14 12:02:18;;;;;;;;;;;21.00;69.20;;;;;;5051201;28;19940;-63
2022/10/14 12:04:44;;;;;;;;;;;21.00;69.30;;;;;;5051609;28;20296;-62
2022/10/14 12:07:21;;;;;;;;;;;21.00;69.30;;;;;;5051910;28;20380;-62
2022/10/14 12:09:47;;;;;;;;;;;21.00;69.40;;;;;;5064052;28;19947;-62
2022/10/14 12:12:14;;;;;;;;;;;21.00;69.40;;;;;;5051431;28;19925;-65
2022/10/14 12:14:43;;;;;;;;;;;21.00;69.30;;;;;;5051324;28;19921;-63
2022/10/14 12:17:28;;;;;;;;;;;21.00;69.40;;;;;;5066768;28;19928;-63
2022/10/14 12:19:54;;;;;;;;;;;21.00;69.50;;;;;;5052142;28;19925;-63
2022/10/14 12:22:28;;;;;;;;;;;21.00;69.50;;;;;;5067554;28;20031;-63
2022/10/14 12:24:55;;;;;;;;;;;20.90;69.50;;;;;;5051571;28;20011;-63
2022/10/14 12:27:21;;;;;;;;;;;21.00;69.60;;;;;;5067387;28;19935;-63
2022/10/14 12:29:47;;;;;;;;;;;20.90;69.60;;;;;;5051690;28;19979;-62
2022/10/14 12:32:15;;;;;;;;;;;20.90;69.70;;;;;;5051955;28;19968;-63
2022/10/14 12:34:43;;;;;;;;;;;20.90;69.70;;;;;;5052180;28;20380;-63
2022/10/14 12:37:28;;;;;;;;;;;20.90;69.70;;;;;;5051503;28;19925;-63
2022/10/14 12:40:14;;;;;;;;;;;20.90;69.70;;;;;;5052435;28;20319;-64
2022/10/14 12:42:42;;;;;;;;;;;20.90;69.70;;;;;;5052099;28;20024;-63
2022/10/14 12:45:17;;;;;;;;;;;20.90;69.70;;;;;;5051281;28;20369;-63
2022/10/14 12:47:42;;;;;;;;;;;20.90;69.80;;;;;;5052521;28;19933;-63
2022/10/14 12:50:14;;;;;;;;;;;20.90;69.80;;;;;;5052033;28;19982;-63
2022/10/14 12:52:43;;;;;;;;;;;20.90;69.80;;;;;;5051797;28;19925;-63
2022/10/14 12:55:18;;;;;;;;;;;20.90;69.80;;;;;;5051871;28;19925;-63
2022/10/14 12:57:45;;;;;;;;;;;20.90;69.80;;;;;;5034180;28;19925;-63
2022/10/14 13:00:19;;;;;;;;;;;20.90;69.80;;;;;;5066244;28;19980;-62
2022/10/14 13:02:45;;;;;;;;;;;20.80;69.80;;;;;;5051896;28;19925;-62
2022/10/14 13:05:43;;;;;;;;;;;20.80;69.80;;;;;;5066523;28;19940;-62
2022/10/14 13:08:24;;;;;;;;;;;20.80;69.80;;;;;;5028759;28;19925;-64
2022/10/14 13:10:59;;;;;;;;;;;20.80;69.80;;;;;;5051910;28;19932;-61
2022/10/14 13:13:40;;;;;;;;;;;20.80;69.70;;;;;;5051149;28;19932;-62
2022/10/14 13:16:09;;;;;;;;;;;20.80;69.80;;;;;;5055263;28;20384;-62
2022/10/14 13:18:41;;;;;;;;;;;20.80;69.90;;;;;;5056003;28;19925;-62
2022/10/14 13:21:07;;;;;;;;;;;20.80;69.90;;;;;;5054312;28;19925;-62
2022/10/14 13:23:34;;;;;;;;;;;20.80;69.90;;;;;;5055530;28;19936;-63
2022/10/14 13:26:06;;;;;;;;;;;20.80;69.90;;;;;;5070220;28;19925;-63
2022/10/14 13:28:37;;;;;;;;;;;20.80;70.00;;;;;;5055694;28;19994;-63
2022/10/14 13:31:04;;;;;;;;;;;20.80;70.00;;;;;;5037418;28;20015;-62
2022/10/14 13:33:35;;;;;;;;;;;20.80;70.00;;;;;;5069035;28;19928;-62
2022/10/14 13:36:21;;;;;;;;;;;20.80;69.90;;;;;;5019687;28;20407;-62
2022/10/14 13:38:53;;;;;;;;;;;20.80;70.00;;;;;;5068550;28;19971;-61
2022/10/14 13:41:23;;;;;;;;;;;20.80;70.00;;;;;;5050516;28;19935;-61
2022/10/14 13:43:49;;;;;;;;;;;20.80;69.90;;;;;;5054688;28;19964;-61
2022/10/14 13:46:34;;;;;;;;;;;20.80;70.00;;;;;;5069501;28;19972;-61
2022/10/14 13:49:01;;;;;;;;;;;20.80;70.00;;;;;;5050829;28;20027;-62
2022/10/14 13:51:41;;;;;;;;;;;20.80;70.00;;;;;;5054662;28;19932;-62
2022/10/14 13:54:10;;;;;;;;;;;20.80;70.00;;;;;;5033877;28;19925;-62
2022/10/14 13:56:35;;;;;;;;;;;20.80;70.00;;;;;;5054339;28;20399;-63
2022/10/14 13:59:01;;;;;;;;;;;20.80;70.10;;;;;;5054640;28;19944;-61
2022/10/14 14:01:35;;;;;;;;;;;20.80;70.10;;;;;;5053039;28;19928;-61
2022/10/14 14:04:01;;;;;;;;;;;20.80;70.10;;;;;;5044048;28;19936;-60
2022/10/14 14:06:26;;;;;;;;;;;20.80;70.10;;;;;;5053643;28;19928;-60
2022/10/14 14:08:53;;;;;;;;;;;20.70;70.10;;;;;;5052835;28;19924;-60
2022/10/14 14:11:25;;;;;;;;;;;20.80;70.20;;;;;;5053678;28;20024;-61
2022/10/14 14:13:53;;;;;;;;;;;20.80;70.30;;;;;;5053584;28;19925;-61
2022/10/14 14:16:19;;;;;;;;;;;20.80;70.30;;;;;;5051526;28;20384;-61
2022/10/14 14:18:48;;;;;;;;;;;20.70;70.20;;;;;;5068392;28;19952;-61
2022/10/14 14:21:13;;;;;;;;;;;20.70;70.20;;;;;;5053305;28;20425;-61
2022/10/14 14:23:52;;;;;;;;;;;20.80;70.30;;;;;;5052925;28;20020;-61
2022/10/14 14:26:18;;;;;;;;;;;20.70;70.30;;;;;;5051969;28;19940;-61
2022/10/14 14:28:44;;;;;;;;;;;20.70;70.30;;;;;;5068808;28;19925;-61